createdAt,value
2023-02-03T00:00:20.800Z,933.61
2023-02-03T00:01:20.819Z,933.65
2023-02-03T00:02:20.953Z,933.63
2023-02-03T00:03:20.939Z,933.62
2023-02-03T00:04:20.897Z,933.57
2023-02-03T00:05:20.893Z,933.59
2023-02-03T00:06:20.922Z,933.59
2023-02-03T00:07:20.940Z,933.54
2023-02-03T00:08:20.943Z,933.61
2023-02-03T00:09:20.956Z,933.62
2023-02-03T00:10:20.993Z,933.70
2023-02-03T00:11:20.989Z,933.65
2023-02-03T00:12:21.007Z,933.68
2023-02-03T00:13:21.022Z,933.70
2023-02-03T00:14:21.052Z,933.75
2023-02-03T00:15:21.064Z,933.78
2023-02-03T00:16:21.145Z,933.83
2023-02-03T00:17:21.093Z,933.83
2023-02-03T00:18:21.112Z,933.89
2023-02-03T00:19:21.131Z,933.90
2023-02-03T00:20:21.171Z,933.92
2023-02-03T00:21:21.173Z,933.93
2023-02-03T00:22:21.194Z,933.97
2023-02-03T00:23:21.205Z,933.96
2023-02-03T00:24:21.217Z,933.99
2023-02-03T00:25:21.235Z,934.06
2023-02-03T00:26:21.260Z,934.08
2023-02-03T00:27:21.269Z,934.11
2023-02-03T00:28:22.302Z,934.12
2023-02-03T00:29:21.305Z,934.18
2023-02-03T00:30:21.328Z,934.24
2023-02-03T00:31:21.470Z,934.27
2023-02-03T00:32:21.457Z,934.34
2023-02-03T00:33:21.378Z,934.33
2023-02-03T00:34:21.399Z,934.37
2023-02-03T00:35:21.409Z,934.42
2023-02-03T00:36:21.448Z,934.43
2023-02-03T00:37:21.453Z,934.48
2023-02-03T00:38:21.472Z,934.54
2023-02-03T00:39:21.479Z,934.55
2023-02-03T00:40:21.505Z,934.57
2023-02-03T00:41:21.531Z,934.55
2023-02-03T00:42:21.532Z,934.59
2023-02-03T00:43:21.557Z,934.61
2023-02-03T00:44:21.571Z,934.56
2023-02-03T00:45:21.590Z,934.58
2023-02-03T00:46:21.619Z,934.59
2023-02-03T00:47:21.629Z,934.57
2023-02-03T00:48:21.647Z,934.62
2023-02-03T00:49:21.664Z,934.60
2023-02-03T00:50:21.680Z,934.58
2023-02-03T00:51:21.696Z,934.59
2023-02-03T00:52:21.732Z,934.63
2023-02-03T00:53:21.726Z,934.69
2023-02-03T00:54:21.745Z,934.68
2023-02-03T00:55:21.767Z,934.64
2023-02-03T00:56:21.779Z,934.68
2023-02-03T00:57:21.796Z,934.67
2023-02-03T00:58:21.823Z,934.68
2023-02-03T00:59:21.829Z,934.71
2023-02-03T01:00:21.847Z,934.70
2023-02-03T01:01:21.911Z,934.71
2023-02-03T01:02:22.259Z,934.70
2023-02-03T01:03:21.931Z,934.68
2023-02-03T01:04:21.928Z,934.71
2023-02-03T01:05:21.943Z,934.69
2023-02-03T01:06:21.963Z,934.69
2023-02-03T01:07:22.028Z,934.65
2023-02-03T01:08:22.017Z,934.66
2023-02-03T01:09:22.044Z,934.72
2023-02-03T01:10:22.027Z,934.72
2023-02-03T01:11:22.048Z,934.69
2023-02-03T01:12:22.058Z,934.71
2023-02-03T01:13:22.098Z,934.71
2023-02-03T01:14:22.104Z,934.72
2023-02-03T01:15:22.123Z,934.70
2023-02-03T01:16:22.192Z,934.69
2023-02-03T01:17:22.146Z,934.67
2023-02-03T01:18:22.162Z,934.66
2023-02-03T01:19:22.186Z,934.70
2023-02-03T01:20:22.199Z,934.71
2023-02-03T01:21:22.226Z,934.70
2023-02-03T01:22:22.244Z,934.69
2023-02-03T01:23:22.259Z,934.68
2023-02-03T01:24:22.310Z,934.74
2023-02-03T01:25:22.302Z,934.69
2023-02-03T01:26:22.303Z,934.71
2023-02-03T01:27:22.335Z,934.75
2023-02-03T01:28:22.346Z,934.69
2023-02-03T01:29:22.358Z,934.70
2023-02-03T01:30:22.380Z,934.78
2023-02-03T01:31:22.575Z,934.79
2023-02-03T01:32:22.414Z,934.79
2023-02-03T01:33:22.439Z,934.78
2023-02-03T01:34:22.454Z,934.76
2023-02-03T01:35:22.460Z,934.75
2023-02-03T01:36:22.492Z,934.73
2023-02-03T01:37:22.524Z,934.75
2023-02-03T01:38:22.520Z,934.73
2023-02-03T01:39:22.534Z,934.70
2023-02-03T01:40:22.605Z,934.65
2023-02-03T01:41:22.583Z,934.64
2023-02-03T01:42:22.625Z,934.69
2023-02-03T01:43:22.606Z,934.67
2023-02-03T01:44:22.620Z,934.68
2023-02-03T01:45:22.639Z,934.73
2023-02-03T01:46:22.689Z,934.70
2023-02-03T01:47:22.691Z,934.65
2023-02-03T01:48:22.717Z,934.68
2023-02-03T01:49:22.736Z,934.70
2023-02-03T01:50:22.772Z,934.71
2023-02-03T01:51:22.755Z,934.75
2023-02-03T01:52:22.767Z,934.68
2023-02-03T01:53:22.780Z,934.68
2023-02-03T01:54:22.803Z,934.68
2023-02-03T01:55:22.823Z,934.70
2023-02-03T01:56:22.858Z,934.70
2023-02-03T01:57:22.871Z,934.69
2023-02-03T01:58:22.874Z,934.69
2023-02-03T01:59:22.885Z,934.67
2023-02-03T02:00:22.898Z,934.66
2023-02-03T02:01:22.970Z,934.68
2023-02-03T02:02:22.997Z,934.61
2023-02-03T02:03:22.955Z,934.66
2023-02-03T02:04:22.972Z,934.62
2023-02-03T02:05:22.997Z,934.60
2023-02-03T02:06:23.008Z,934.58
2023-02-03T02:07:23.025Z,934.56
2023-02-03T02:08:23.040Z,934.54
2023-02-03T02:09:23.053Z,934.54
2023-02-03T02:10:23.082Z,934.58
2023-02-03T02:11:23.085Z,934.56
2023-02-03T02:12:23.166Z,934.54
2023-02-03T02:13:23.128Z,934.53
2023-02-03T02:14:23.141Z,934.57
2023-02-03T02:15:23.156Z,934.58
2023-02-03T02:16:23.181Z,934.61
2023-02-03T02:17:23.196Z,934.65
2023-02-03T02:18:23.229Z,934.66
2023-02-03T02:19:23.237Z,934.69
2023-02-03T02:20:23.440Z,934.68
2023-02-03T02:21:23.262Z,934.60
2023-02-03T02:22:23.278Z,934.66
2023-02-03T02:23:23.303Z,934.63
2023-02-03T02:27:52.042Z,934.58
2023-02-03T02:28:51.985Z,934.54
2023-02-03T02:29:52.002Z,934.57
2023-02-03T02:30:52.099Z,934.59
2023-02-03T02:31:52.159Z,934.52
2023-02-03T02:32:52.053Z,934.54
2023-02-03T02:33:52.074Z,934.52
2023-02-03T02:34:52.094Z,934.49
2023-02-03T02:35:52.109Z,934.49
2023-02-03T02:36:52.125Z,934.44
2023-02-03T02:37:52.223Z,934.43
2023-02-03T02:38:52.158Z,934.45
2023-02-03T02:39:52.177Z,934.45
2023-02-03T02:40:52.192Z,934.44
2023-02-03T02:41:52.211Z,934.43
2023-02-03T02:42:52.230Z,934.43
2023-02-03T02:43:52.269Z,934.39
2023-02-03T02:44:52.265Z,934.43
2023-02-03T02:45:52.278Z,934.43
2023-02-03T02:46:52.297Z,934.43
2023-02-03T02:47:52.314Z,934.40
2023-02-03T02:48:52.343Z,934.40
2023-02-03T02:49:52.350Z,934.40
2023-02-03T02:50:52.366Z,934.39
2023-02-03T02:51:52.390Z,934.37
2023-02-03T02:52:52.399Z,934.37
2023-02-03T02:53:52.421Z,934.32
2023-02-03T02:54:52.458Z,934.35
2023-02-03T02:55:52.454Z,934.29
2023-02-03T02:56:52.470Z,934.25
2023-02-03T02:57:52.491Z,934.27
2023-02-03T02:58:52.510Z,934.26
2023-02-03T02:59:52.960Z,934.25
2023-02-03T03:00:52.899Z,934.26
2023-02-03T03:01:53.046Z,934.26
2023-02-03T03:02:52.986Z,934.24
2023-02-03T03:03:52.986Z,934.14
2023-02-03T03:04:53.096Z,934.12
2023-02-03T03:05:53.239Z,934.09
2023-02-03T03:06:53.056Z,934.09
2023-02-03T03:07:53.075Z,934.10
2023-02-03T03:08:53.091Z,934.12
2023-02-03T03:09:52.732Z,934.07
2023-02-03T03:10:52.890Z,934.07
2023-02-03T03:11:53.117Z,934.08
2023-02-03T03:12:53.151Z,934.00
2023-02-03T03:13:53.149Z,934.03
2023-02-03T03:14:53.072Z,933.99
2023-02-03T03:15:53.294Z,933.92
2023-02-03T03:16:53.227Z,933.89
2023-02-03T03:17:53.245Z,933.88
2023-02-03T03:18:53.269Z,933.87
2023-02-03T03:19:53.283Z,933.85
2023-02-03T03:20:53.277Z,933.80
2023-02-03T03:21:52.900Z,933.75
2023-02-03T03:22:52.925Z,933.73
2023-02-03T03:23:52.939Z,933.68
2023-02-03T03:24:52.965Z,933.62
2023-02-03T03:25:53.068Z,933.60
2023-02-03T03:26:52.992Z,933.48
2023-02-03T03:27:53.097Z,933.46
2023-02-03T03:28:53.433Z,933.44
2023-02-03T03:29:53.456Z,933.38
2023-02-03T03:30:53.569Z,933.39
2023-02-03T03:31:53.208Z,933.33
2023-02-03T03:32:53.088Z,933.36
2023-02-03T03:33:53.105Z,933.29
2023-02-03T03:34:53.171Z,933.31
2023-02-03T03:35:53.759Z,933.25
2023-02-03T03:36:53.576Z,933.25
2023-02-03T03:37:53.590Z,933.23
2023-02-03T03:38:53.639Z,933.20
2023-02-03T03:39:53.627Z,933.18
2023-02-03T03:40:53.622Z,933.15
2023-02-03T03:41:53.654Z,933.15
2023-02-03T03:42:53.673Z,933.14
2023-02-03T03:43:53.892Z,933.10
2023-02-03T03:44:53.611Z,933.08
2023-02-03T03:45:53.724Z,933.08
2023-02-03T03:46:53.745Z,933.10
2023-02-03T03:47:54.000Z,933.07
2023-02-03T03:48:53.775Z,932.99
2023-02-03T03:49:54.000Z,933.02
2023-02-03T03:50:53.818Z,932.98
2023-02-03T03:51:53.837Z,932.95
2023-02-03T03:52:53.856Z,932.90
2023-02-03T03:53:53.864Z,932.90
2023-02-03T03:54:53.894Z,932.84
2023-02-03T03:55:53.903Z,932.84
2023-02-03T03:56:53.918Z,932.88
2023-02-03T03:57:53.932Z,932.86
2023-02-03T03:58:53.952Z,932.84
2023-02-03T03:59:53.979Z,932.83
2023-02-03T04:00:53.979Z,932.83
2023-02-03T04:01:54.215Z,932.81
2023-02-03T04:02:54.044Z,932.76
2023-02-03T04:03:54.056Z,932.75
2023-02-03T04:04:54.055Z,932.71
2023-02-03T04:05:54.089Z,932.71
2023-02-03T04:06:54.090Z,932.69
2023-02-03T04:07:54.103Z,932.69
2023-02-03T04:08:54.089Z,932.70
2023-02-03T04:09:54.130Z,932.69
2023-02-03T04:10:54.128Z,932.64
2023-02-03T04:11:53.758Z,932.68
2023-02-03T04:12:53.908Z,932.67
2023-02-03T04:13:54.201Z,932.70
2023-02-03T04:14:54.236Z,932.69
2023-02-03T04:15:54.294Z,932.68
2023-02-03T04:16:54.249Z,932.70
2023-02-03T04:17:54.277Z,932.64
2023-02-03T04:18:54.279Z,932.67
2023-02-03T04:19:54.359Z,932.60
2023-02-03T04:20:54.324Z,932.56
2023-02-03T04:21:54.337Z,932.55
2023-02-03T04:22:54.364Z,932.56
2023-02-03T04:23:54.381Z,932.50
2023-02-03T04:24:54.397Z,932.47
2023-02-03T04:25:54.412Z,932.44
2023-02-03T04:26:54.427Z,932.45
2023-02-03T04:27:54.073Z,932.39
2023-02-03T04:28:54.421Z,932.37
2023-02-03T04:29:54.480Z,932.37
2023-02-03T04:30:54.578Z,932.40
2023-02-03T04:31:54.578Z,932.34
2023-02-03T04:32:54.536Z,932.37
2023-02-03T04:33:54.546Z,932.40
2023-02-03T04:34:54.568Z,932.37
2023-02-03T04:35:54.813Z,932.34
2023-02-03T04:36:54.609Z,932.34
2023-02-03T04:37:54.609Z,932.26
2023-02-03T04:38:54.631Z,932.23
2023-02-03T04:39:54.869Z,932.19
2023-02-03T04:40:54.889Z,932.19
2023-02-03T04:41:54.696Z,932.17
2023-02-03T04:42:54.712Z,932.15
2023-02-03T04:43:54.727Z,932.14
2023-02-03T04:44:54.744Z,932.14
2023-02-03T04:45:54.799Z,932.11
2023-02-03T04:46:54.818Z,932.06
2023-02-03T04:47:54.992Z,932.10
2023-02-03T04:48:54.810Z,932.03
2023-02-03T04:49:54.405Z,932.05
2023-02-03T04:50:54.443Z,931.99
2023-02-03T04:51:54.890Z,931.97
2023-02-03T04:52:54.872Z,931.94
2023-02-03T04:53:54.896Z,931.91
2023-02-03T04:54:55.108Z,931.87
2023-02-03T04:55:54.937Z,931.84
2023-02-03T04:56:54.907Z,931.84
2023-02-03T04:57:54.976Z,931.84
2023-02-03T04:58:54.979Z,931.80
2023-02-03T04:59:55.000Z,931.78
2023-02-03T05:00:55.051Z,931.75
2023-02-03T05:01:55.034Z,931.75
2023-02-03T05:02:55.093Z,931.75
2023-02-03T05:03:55.060Z,931.76
2023-02-03T05:04:55.077Z,931.71
2023-02-03T05:05:55.091Z,931.74
2023-02-03T05:06:55.106Z,931.71
2023-02-03T05:07:55.139Z,931.72
2023-02-03T05:08:55.163Z,931.71
2023-02-03T05:09:55.151Z,931.73
2023-02-03T05:10:55.182Z,931.72
2023-02-03T05:11:55.197Z,931.72
2023-02-03T05:12:55.211Z,931.72
2023-02-03T05:13:55.420Z,931.75
2023-02-03T05:14:55.242Z,931.67
2023-02-03T05:15:55.283Z,931.70
2023-02-03T05:16:55.435Z,931.62
2023-02-03T05:17:55.304Z,931.64
2023-02-03T05:18:55.313Z,931.61
2023-02-03T05:19:55.329Z,931.59
2023-02-03T05:20:55.343Z,931.57
2023-02-03T05:21:55.359Z,931.56
2023-02-03T05:22:55.616Z,931.53
2023-02-03T05:23:55.641Z,931.52
2023-02-03T05:24:55.421Z,931.48
2023-02-03T05:25:55.454Z,931.44
2023-02-03T05:26:55.473Z,931.42
2023-02-03T05:27:55.707Z,931.43
2023-02-03T05:28:57.657Z,931.43
2023-02-03T05:29:55.711Z,931.43
2023-02-03T05:30:55.598Z,931.40
2023-02-03T05:31:55.606Z,931.38
2023-02-03T05:32:55.566Z,931.36
2023-02-03T05:33:55.777Z,931.32
2023-02-03T05:34:58.632Z,931.32
2023-02-03T05:35:55.615Z,931.28
2023-02-03T05:36:56.865Z,931.29
2023-02-03T05:37:55.644Z,931.27
2023-02-03T05:38:55.672Z,931.30
2023-02-03T05:39:55.706Z,931.27
2023-02-03T05:40:56.942Z,931.30
2023-02-03T05:41:58.313Z,931.26
2023-02-03T05:42:55.730Z,931.27
2023-02-03T05:43:55.775Z,931.23
2023-02-03T05:44:55.775Z,931.29
2023-02-03T05:45:55.859Z,931.27
2023-02-03T05:46:55.810Z,931.25
2023-02-03T05:47:55.822Z,931.28
2023-02-03T05:48:56.049Z,931.24
2023-02-03T05:49:55.853Z,931.24
2023-02-03T05:50:55.869Z,931.20
2023-02-03T05:51:57.116Z,931.21
2023-02-03T05:52:55.906Z,931.20
2023-02-03T05:53:55.996Z,931.15
2023-02-03T05:54:56.178Z,931.18
2023-02-03T05:55:56.006Z,931.18
2023-02-03T05:56:56.182Z,931.19
2023-02-03T05:57:55.994Z,931.15
2023-02-03T05:58:57.220Z,931.15
2023-02-03T05:59:56.029Z,931.16
2023-02-03T06:00:56.042Z,931.13
2023-02-03T06:01:56.068Z,931.09
2023-02-03T06:02:56.076Z,931.05
2023-02-03T06:03:56.199Z,931.07
2023-02-03T06:04:56.122Z,931.09
2023-02-03T06:05:56.115Z,931.07
2023-02-03T06:06:56.147Z,931.07
2023-02-03T06:07:56.165Z,931.07
2023-02-03T06:08:57.589Z,931.09
2023-02-03T06:09:56.394Z,931.08
2023-02-03T06:10:56.414Z,931.07
2023-02-03T06:11:56.316Z,931.08
2023-02-03T06:12:57.502Z,931.07
2023-02-03T06:13:56.262Z,931.11
2023-02-03T06:14:56.289Z,931.09
2023-02-03T06:15:56.291Z,931.07
2023-02-03T06:16:56.560Z,931.05
2023-02-03T06:17:56.526Z,931.03
2023-02-03T06:18:56.341Z,931.06
2023-02-03T06:19:57.783Z,931.05
2023-02-03T06:20:57.798Z,931.06
2023-02-03T06:21:56.396Z,931.07
2023-02-03T06:22:56.412Z,931.05
2023-02-03T06:23:56.820Z,931.08
2023-02-03T06:24:56.650Z,931.05
2023-02-03T06:25:56.663Z,931.01
2023-02-03T06:26:56.479Z,931.06
2023-02-03T06:27:56.550Z,931.00
2023-02-03T06:28:56.533Z,931.00
2023-02-03T06:29:56.528Z,931.02
2023-02-03T06:30:56.866Z,931.00
2023-02-03T06:31:56.873Z,931.04
2023-02-03T06:32:56.790Z,930.95
2023-02-03T06:33:56.592Z,931.03
2023-02-03T06:34:56.817Z,931.00
2023-02-03T06:35:56.629Z,930.98
2023-02-03T06:36:56.849Z,930.98
2023-02-03T06:37:56.672Z,930.97
2023-02-03T06:38:56.680Z,930.95
2023-02-03T06:39:56.905Z,930.92
2023-02-03T06:40:59.753Z,930.92
2023-02-03T06:41:58.140Z,930.95
2023-02-03T06:42:59.795Z,930.91
2023-02-03T06:43:56.768Z,930.88
2023-02-03T06:44:56.781Z,930.93
2023-02-03T06:45:56.880Z,930.90
2023-02-03T06:46:57.020Z,930.87
2023-02-03T06:47:56.831Z,930.88
2023-02-03T06:48:56.873Z,930.90
2023-02-03T06:49:58.077Z,930.88
2023-02-03T06:50:58.117Z,930.85
2023-02-03T06:51:56.900Z,930.90
2023-02-03T06:52:56.931Z,930.90
2023-02-03T06:54:01.980Z,930.88
2023-02-03T06:54:57.147Z,930.87
2023-02-03T06:55:56.963Z,930.85
2023-02-03T06:56:56.977Z,930.87
2023-02-03T06:58:07.475Z,930.91
2023-02-03T06:58:57.017Z,930.91
2023-02-03T06:59:57.039Z,930.90
2023-02-03T07:00:57.046Z,930.93
2023-02-03T07:01:57.272Z,930.91
2023-02-03T07:03:00.239Z,930.91
2023-02-03T07:03:57.095Z,930.89
2023-02-03T07:04:58.329Z,930.92
2023-02-03T07:05:57.134Z,930.96
2023-02-03T07:06:57.137Z,930.93
2023-02-03T07:07:57.167Z,930.95
2023-02-03T07:08:57.179Z,930.95
2023-02-03T07:09:57.411Z,930.95
2023-02-03T07:10:57.221Z,930.94
2023-02-03T07:11:57.226Z,930.89
2023-02-03T07:12:58.461Z,930.93
2023-02-03T07:13:58.515Z,930.89
2023-02-03T07:14:57.291Z,930.91
2023-02-03T07:15:57.341Z,930.90
2023-02-03T07:16:58.548Z,930.88
2023-02-03T07:17:57.536Z,930.86
2023-02-03T07:18:57.377Z,930.86
2023-02-03T07:19:56.947Z,930.88
2023-02-03T07:20:56.980Z,930.88
2023-02-03T07:21:56.985Z,930.86
2023-02-03T07:22:56.998Z,930.90
2023-02-03T07:23:57.013Z,930.93
2023-02-03T07:24:57.041Z,930.90
2023-02-03T07:25:57.059Z,930.93
2023-02-03T07:26:57.071Z,930.89
2023-02-03T07:27:57.116Z,930.92
2023-02-03T07:28:57.103Z,930.89
2023-02-03T07:29:57.133Z,930.92
2023-02-03T07:30:57.236Z,930.92
2023-02-03T07:31:57.285Z,930.94
2023-02-03T07:32:57.168Z,930.93
2023-02-03T07:33:57.178Z,930.91
2023-02-03T07:34:57.205Z,930.94
2023-02-03T07:35:57.218Z,930.93
2023-02-03T07:36:57.241Z,930.92
2023-02-03T07:37:57.250Z,930.91
2023-02-03T07:38:57.265Z,930.94
2023-02-03T07:39:57.285Z,930.98
2023-02-03T07:40:57.294Z,931.01
2023-02-03T07:41:57.325Z,931.03
2023-02-03T07:42:57.335Z,931.07
2023-02-03T07:43:57.350Z,931.06
2023-02-03T07:44:57.370Z,931.06
2023-02-03T07:45:57.395Z,931.10
2023-02-03T07:46:57.474Z,931.10
2023-02-03T07:47:57.423Z,931.08
2023-02-03T07:48:57.436Z,931.08
2023-02-03T07:49:57.443Z,931.05
2023-02-03T07:50:57.462Z,931.09
2023-02-03T07:51:57.487Z,931.10
2023-02-03T07:52:57.491Z,931.10
2023-02-03T07:53:57.519Z,931.14
2023-02-03T07:54:57.537Z,931.17
2023-02-03T07:55:57.546Z,931.15
2023-02-03T07:56:57.570Z,931.18
2023-02-03T07:57:57.575Z,931.19
2023-02-03T07:58:57.602Z,931.16
2023-02-03T07:59:57.618Z,931.18
2023-02-03T08:00:57.635Z,931.20
2023-02-03T08:01:57.711Z,931.21
2023-02-03T08:02:57.665Z,931.21
2023-02-03T08:03:57.684Z,931.23
2023-02-03T08:04:57.745Z,931.25
2023-02-03T08:05:57.715Z,931.29
2023-02-03T08:06:57.725Z,931.34
2023-02-03T08:07:57.769Z,931.32
2023-02-03T08:08:57.756Z,931.30
2023-02-03T08:09:57.785Z,931.36
2023-02-03T08:10:57.804Z,931.40
2023-02-03T08:11:57.807Z,931.37
2023-02-03T08:12:57.836Z,931.37
2023-02-03T08:13:57.841Z,931.41
2023-02-03T08:14:57.875Z,931.42
2023-02-03T08:15:57.951Z,931.44
2023-02-03T08:16:57.898Z,931.46
2023-02-03T08:17:57.926Z,931.44
2023-02-03T08:18:57.934Z,931.46
2023-02-03T08:19:57.951Z,931.48
2023-02-03T08:20:57.957Z,931.46
2023-02-03T08:21:57.976Z,931.48
2023-02-03T08:22:57.990Z,931.49
2023-02-03T08:23:58.005Z,931.48
2023-02-03T08:24:58.028Z,931.47
2023-02-03T08:25:58.045Z,931.53
2023-02-03T08:26:58.063Z,931.51
2023-02-03T08:27:58.133Z,931.51
2023-02-03T08:28:58.094Z,931.53
2023-02-03T08:29:58.113Z,931.50
2023-02-03T08:30:58.165Z,931.57
2023-02-03T08:31:58.172Z,931.56
2023-02-03T08:32:58.162Z,931.60
2023-02-03T08:33:58.212Z,931.58
2023-02-03T08:34:58.193Z,931.62
2023-02-03T08:35:58.212Z,931.64
2023-02-03T08:36:58.228Z,931.63
2023-02-03T08:37:58.240Z,931.67
2023-02-03T08:38:58.254Z,931.65
2023-02-03T08:39:58.271Z,931.70
2023-02-03T08:40:58.287Z,931.66
2023-02-03T08:41:58.304Z,931.69
2023-02-03T08:42:58.319Z,931.67
2023-02-03T08:43:58.345Z,931.69
2023-02-03T08:44:58.358Z,931.70
2023-02-03T08:45:58.410Z,931.70
2023-02-03T08:46:58.385Z,931.70
2023-02-03T08:47:58.430Z,931.71
2023-02-03T08:48:58.433Z,931.74
2023-02-03T08:49:58.468Z,931.73
2023-02-03T08:50:58.471Z,931.74
2023-02-03T08:51:58.475Z,931.78
2023-02-03T08:52:58.504Z,931.78
2023-02-03T08:53:58.516Z,931.80
2023-02-03T08:54:58.531Z,931.79
2023-02-03T08:55:58.542Z,931.79
2023-02-03T08:56:58.558Z,931.80
2023-02-03T08:57:58.571Z,931.80
2023-02-03T08:58:58.584Z,931.88
2023-02-03T08:59:58.607Z,931.85
2023-02-03T09:00:58.646Z,931.89
2023-02-03T09:01:58.633Z,931.93
2023-02-03T09:02:58.658Z,931.92
2023-02-03T09:03:58.679Z,931.96
2023-02-03T09:04:58.758Z,931.96
2023-02-03T09:05:58.727Z,932.00
2023-02-03T09:06:58.723Z,932.08
2023-02-03T09:07:58.738Z,932.09
2023-02-03T09:08:58.748Z,932.09
2023-02-03T09:09:58.772Z,932.17
2023-02-03T09:10:58.789Z,932.19
2023-02-03T09:11:58.798Z,932.22
2023-02-03T09:12:58.816Z,932.24
2023-02-03T09:13:58.845Z,932.28
2023-02-03T09:14:58.861Z,932.31
2023-02-03T09:15:58.871Z,932.30
2023-02-03T09:16:58.941Z,932.30
2023-02-03T09:17:58.920Z,932.28
2023-02-03T09:18:58.921Z,932.30
2023-02-03T09:19:58.985Z,932.36
2023-02-03T09:20:58.958Z,932.33
2023-02-03T09:21:58.997Z,932.34
2023-02-03T09:22:58.980Z,932.34
2023-02-03T09:23:58.995Z,932.40
2023-02-03T09:24:59.013Z,932.35
2023-02-03T09:25:59.036Z,932.40
2023-02-03T09:26:59.053Z,932.42
2023-02-03T09:27:59.092Z,932.44
2023-02-03T09:28:59.085Z,932.45
2023-02-03T09:29:59.096Z,932.48
2023-02-03T09:30:59.172Z,932.47
2023-02-03T09:31:59.149Z,932.51
2023-02-03T09:32:59.143Z,932.49
2023-02-03T09:33:59.166Z,932.48
2023-02-03T09:34:59.182Z,932.52
2023-02-03T09:35:59.209Z,932.54
2023-02-03T09:36:59.210Z,932.54
2023-02-03T09:37:59.349Z,932.55
2023-02-03T09:38:59.276Z,932.56
2023-02-03T09:39:59.278Z,932.58
2023-02-03T09:41:09.528Z,932.59
2023-02-03T09:42:01.095Z,932.61
2023-02-03T09:42:59.315Z,932.65
2023-02-03T09:43:59.322Z,932.68
2023-02-03T09:44:59.346Z,932.69
2023-02-03T09:45:59.400Z,932.70
2023-02-03T09:46:59.375Z,932.71
2023-02-03T09:47:59.397Z,932.72
2023-02-03T09:48:59.411Z,932.72
2023-02-03T09:49:59.427Z,932.71
2023-02-03T09:50:59.437Z,932.73
2023-02-03T09:51:59.454Z,932.74
2023-02-03T09:52:59.477Z,932.75
2023-02-03T09:53:59.518Z,932.73
2023-02-03T09:54:59.524Z,932.68
2023-02-03T09:55:59.547Z,932.71
2023-02-03T09:56:59.543Z,932.69
2023-02-03T09:57:59.561Z,932.66
2023-02-03T09:58:59.569Z,932.66
2023-02-03T09:59:59.596Z,932.69
2023-02-03T10:00:59.618Z,932.74
2023-02-03T10:01:59.624Z,932.76
2023-02-03T10:02:59.723Z,932.79
2023-02-03T10:03:59.651Z,932.80
2023-02-03T10:04:59.676Z,932.78
2023-02-03T10:05:59.685Z,932.77
2023-02-03T10:06:59.702Z,932.83
2023-02-03T10:07:59.723Z,932.81
2023-02-03T10:08:59.739Z,932.82
2023-02-03T10:09:59.775Z,932.84
2023-02-03T10:10:59.766Z,932.84
2023-02-03T10:11:59.789Z,932.79
2023-02-03T10:12:59.796Z,932.81
2023-02-03T10:13:59.815Z,932.82
2023-02-03T10:14:59.838Z,932.84
2023-02-03T10:15:59.858Z,932.87
2023-02-03T10:16:59.943Z,932.89
2023-02-03T10:17:59.885Z,932.90
2023-02-03T10:19:00.935Z,932.89
2023-02-03T10:19:59.919Z,932.89
2023-02-03T10:20:59.930Z,932.92
2023-02-03T10:21:59.948Z,932.91
2023-02-03T10:22:59.988Z,932.90
2023-02-03T10:23:59.979Z,932.89
2023-02-03T10:24:59.994Z,932.88
2023-02-03T10:26:00.127Z,932.94
2023-02-03T10:27:00.034Z,932.92
2023-02-03T10:28:00.165Z,932.95
2023-02-03T10:29:00.067Z,932.93
2023-02-03T10:30:00.145Z,932.93
2023-02-03T10:31:00.240Z,932.98
2023-02-03T10:32:00.380Z,933.00
2023-02-03T10:33:00.134Z,933.02
2023-02-03T10:34:00.194Z,933.01
2023-02-03T10:35:00.169Z,933.06
2023-02-03T10:36:00.173Z,933.03
2023-02-03T10:37:00.196Z,933.02
2023-02-03T10:38:00.227Z,933.05
2023-02-03T10:39:00.224Z,933.05
2023-02-03T10:40:00.250Z,933.06
2023-02-03T10:41:00.420Z,933.04
2023-02-03T10:42:00.316Z,933.06
2023-02-03T10:43:00.291Z,933.03
2023-02-03T10:44:00.304Z,933.02
2023-02-03T10:45:00.356Z,933.02
2023-02-03T10:46:00.396Z,933.00
2023-02-03T10:47:00.351Z,932.99
2023-02-03T10:48:00.373Z,932.99
2023-02-03T10:49:00.388Z,933.00
2023-02-03T10:50:00.419Z,932.99
2023-02-03T10:51:00.425Z,932.99
2023-02-03T10:52:00.444Z,932.97
2023-02-03T10:53:00.490Z,932.96
2023-02-03T10:54:00.483Z,932.97
2023-02-03T10:55:00.618Z,932.93
2023-02-03T10:56:00.504Z,932.96
2023-02-03T10:57:00.528Z,932.95
2023-02-03T10:58:00.563Z,932.95
2023-02-03T10:59:00.559Z,932.95
2023-02-03T11:00:00.573Z,932.97
2023-02-03T11:01:00.587Z,932.99
2023-02-03T11:02:00.615Z,932.98
2023-02-03T11:03:00.676Z,932.94
2023-02-03T11:04:00.648Z,932.97
2023-02-03T11:05:00.655Z,933.01
2023-02-03T11:06:00.668Z,932.96
2023-02-03T11:07:00.687Z,932.97
2023-02-03T11:08:00.710Z,932.97
2023-02-03T11:09:00.717Z,932.97
2023-02-03T11:10:00.732Z,933.00
2023-02-03T11:11:00.758Z,932.99
2023-02-03T11:12:00.769Z,933.02
2023-02-03T11:13:00.778Z,933.01
2023-02-03T11:14:00.923Z,933.00
2023-02-03T11:15:00.810Z,933.03
2023-02-03T11:16:00.959Z,933.01
2023-02-03T11:17:00.857Z,933.04
2023-02-03T11:18:00.864Z,933.05
2023-02-03T11:19:00.912Z,933.05
2023-02-03T11:20:00.899Z,933.08
2023-02-03T11:21:00.916Z,933.09
2023-02-03T11:22:01.008Z,933.09
2023-02-03T11:23:00.961Z,933.12
2023-02-03T11:24:00.957Z,933.13
2023-02-03T11:25:00.982Z,933.10
2023-02-03T11:26:00.999Z,933.09
2023-02-03T11:27:01.013Z,933.13
2023-02-03T11:28:01.176Z,933.13
2023-02-03T11:29:01.037Z,933.14
2023-02-03T11:30:01.088Z,933.14
2023-02-03T11:31:01.182Z,933.20
2023-02-03T11:32:01.316Z,933.22
2023-02-03T11:33:01.104Z,933.18
2023-02-03T11:34:01.121Z,933.18
2023-02-03T11:35:01.144Z,933.22
2023-02-03T11:36:01.168Z,933.22
2023-02-03T11:37:01.170Z,933.20
2023-02-03T11:38:01.195Z,933.24
2023-02-03T11:39:01.213Z,933.24
2023-02-03T11:40:01.246Z,933.22
2023-02-03T11:41:01.246Z,933.27
2023-02-03T11:42:01.258Z,933.26
2023-02-03T11:43:01.269Z,933.25
2023-02-03T11:44:01.293Z,933.28
2023-02-03T11:45:01.313Z,933.30
2023-02-03T11:46:01.392Z,933.32
2023-02-03T11:47:01.407Z,933.33
2023-02-03T11:48:01.351Z,933.35
2023-02-03T11:49:01.365Z,933.37
2023-02-03T11:50:01.390Z,933.37
2023-02-03T11:51:01.408Z,933.37
2023-02-03T11:52:01.424Z,933.41
2023-02-03T11:53:01.444Z,933.47
2023-02-03T11:54:01.455Z,933.44
2023-02-03T11:55:01.487Z,933.42
2023-02-03T11:56:01.487Z,933.37
2023-02-03T11:57:01.507Z,933.40
2023-02-03T11:58:01.549Z,933.43
2023-02-03T11:59:01.576Z,933.44
2023-02-03T12:00:01.615Z,933.43
2023-02-03T12:01:01.572Z,933.41
2023-02-03T12:02:01.606Z,933.43
2023-02-03T12:03:01.756Z,933.43
2023-02-03T12:04:01.679Z,933.43
2023-02-03T12:05:01.635Z,933.43
2023-02-03T12:06:01.649Z,933.43
2023-02-03T12:07:01.678Z,933.46
2023-02-03T12:08:01.685Z,933.46
2023-02-03T12:09:01.692Z,933.49
2023-02-03T12:10:01.712Z,933.51
2023-02-03T12:11:01.725Z,933.49
2023-02-03T12:12:01.757Z,933.54
2023-02-03T12:13:01.759Z,933.53
2023-02-03T12:14:01.785Z,933.55
2023-02-03T12:15:01.808Z,933.53
2023-02-03T12:16:01.935Z,933.57
2023-02-03T12:17:01.830Z,933.58
2023-02-03T12:18:01.871Z,933.66
2023-02-03T12:19:01.863Z,933.60
2023-02-03T12:20:01.880Z,933.61
2023-02-03T12:21:01.915Z,933.63
2023-02-03T12:22:01.912Z,933.65
2023-02-03T12:23:01.925Z,933.67
2023-02-03T12:24:01.940Z,933.73
2023-02-03T12:25:01.964Z,933.69
2023-02-03T12:26:01.978Z,933.72
2023-02-03T12:27:02.004Z,933.72
2023-02-03T12:28:02.083Z,933.73
2023-02-03T12:29:02.056Z,933.68
2023-02-03T12:30:02.043Z,933.69
2023-02-03T12:31:02.076Z,933.68
2023-02-03T12:32:02.120Z,933.68